Time;durP1;ratioP1;P1;durP2;ratioP2;P2;SDS_P1;SDS_P2;PMS_P1;PMS_P2;Temp;Humidity;BMP_temperature;BMP_pressure;BME280_temperature;BME280_humidity;BME280_pressure;Samples;Min_cycle;Max_cycle;Signal;HPM_P1;HPM_P2
2022/03/08 00:01:28;;;;;;;14.57;9.77;;;;;;;0.24;65.16;102334.53;5022896;28;20033;-74
2022/03/08 00:03:53;;;;;;;13.93;9.77;;;;;;;0.26;65.16;102327.16;5024233;28;20022;-75
2022/03/08 00:06:18;;;;;;;13.30;9.88;;;;;;;0.28;65.10;102325.19;5022369;28;20535;-74
2022/03/08 00:08:44;;;;;;;16.77;9.70;;;;;;;0.27;65.29;102328.88;5022931;28;20029;-75
2022/03/08 00:11:10;;;;;;;15.18;9.57;;;;;;;0.26;65.31;102327.16;5022490;28;20437;-70
2022/03/08 00:13:35;;;;;;;13.30;9.57;;;;;;;0.33;64.95;102332.91;5023934;28;20029;-75
2022/03/08 00:16:00;;;;;;;13.20;9.15;;;;;;;0.30;64.79;102323.19;5023000;28;20026;-75
2022/03/08 00:18:26;;;;;;;13.45;10.15;;;;;;;0.29;64.52;102324.19;5022258;28;20547;-75
2022/03/08 00:20:51;;;;;;;11.60;8.77;;;;;;;0.32;64.44;102320.38;5023445;28;20073;-74
2022/03/08 00:23:16;;;;;;;14.15;10.10;;;;;;;0.32;64.40;102321.25;5021905;28;20476;-75
2022/03/08 00:25:41;;;;;;;13.23;9.13;;;;;;;0.36;64.25;102314.59;5022779;28;20132;-75
2022/03/08 00:28:07;;;;;;;13.75;9.65;;;;;;;0.29;64.43;102317.94;5022992;28;20025;-75
2022/03/08 00:30:32;;;;;;;13.35;9.18;;;;;;;0.23;64.71;102312.06;5022585;28;20061;-75
2022/03/08 00:32:58;;;;;;;13.18;8.82;;;;;;;0.24;64.64;102313.75;5023239;28;20029;-74
2022/03/08 00:35:24;;;;;;;13.18;8.40;;;;;;;0.24;64.46;102307.50;5022366;28;20071;-75
2022/03/08 00:37:50;;;;;;;14.57;9.48;;;;;;;0.22;63.99;102304.94;5021759;28;20073;-74
2022/03/08 00:40:19;;;;;;;13.25;8.93;;;;;;;0.19;64.24;102310.59;5023200;28;20029;-75
2022/03/08 00:42:44;;;;;;;13.10;8.95;;;;;;;0.17;64.16;102309.88;5022927;28;20060;-74
2022/03/08 00:45:09;;;;;;;14.77;8.95;;;;;;;0.14;64.26;102307.41;5021428;28;20025;-73
2022/03/08 00:47:36;;;;;;;13.02;9.27;;;;;;;0.12;63.96;102308.53;5023043;28;20148;-75
2022/03/08 00:50:04;;;;;;;15.63;9.52;;;;;;;0.11;63.81;102314.94;5022705;28;20522;-75
2022/03/08 00:52:29;;;;;;;15.40;10.43;;;;;;;0.10;63.94;102319.47;5021079;28;20519;-75
2022/03/08 00:54:54;;;;;;;15.20;9.70;;;;;;;0.09;63.76;102314.19;5023213;28;20029;-75
2022/03/08 00:57:20;;;;;;;19.70;10.90;;;;;;;0.10;63.91;102313.19;5021963;28;20196;-75
2022/03/08 00:59:45;;;;;;;15.05;9.60;;;;;;;0.13;63.22;102316.50;5021656;28;20052;-75
2022/03/08 01:02:10;;;;;;;14.27;9.18;;;;;;;0.11;63.32;102306.81;5022155;28;20579;-74
2022/03/08 01:04:35;;;;;;;14.45;9.27;;;;;;;0.09;63.59;102317.72;5023140;28;20516;-75
2022/03/08 01:07:01;;;;;;;12.95;9.63;;;;;;;0.07;63.83;102299.94;5022869;28;20025;-66
2022/03/08 01:09:26;;;;;;;15.10;9.35;;;;;;;0.10;63.36;102318.59;5021237;28;20563;-75
2022/03/08 01:11:52;;;;;;;13.98;9.48;;;;;;;0.09;63.56;102311.47;5022518;28;20049;-75
2022/03/08 01:14:17;;;;;;;11.88;8.85;;;;;;;0.12;63.62;102304.00;5021976;28;20029;-75
2022/03/08 01:16:42;;;;;;;11.88;8.55;;;;;;;0.17;63.40;102301.75;5021489;28;20033;-76
2022/03/08 01:19:08;;;;;;;13.32;9.18;;;;;;;0.16;63.37;102304.59;5022914;28;20500;-74
2022/03/08 01:21:36;;;;;;;13.57;8.60;;;;;;;0.12;63.47;102298.59;5021932;28;20041;-74
2022/03/08 01:24:03;;;;;;;12.30;8.48;;;;;;;0.07;63.65;102299.94;5021798;28;20018;-74
2022/03/08 01:26:29;;;;;;;13.93;9.07;;;;;;;-0.01;63.94;102293.31;5021748;28;20038;-74
2022/03/08 01:28:55;;;;;;;13.13;8.70;;;;;;;-0.07;64.05;102303.78;5022193;28;20618;-75
2022/03/08 01:31:20;;;;;;;11.85;8.68;;;;;;;-0.11;64.09;102288.81;5021978;28;20044;-74
2022/03/08 01:33:45;;;;;;;15.27;9.20;;;;;;;-0.06;64.06;102291.97;5021779;28;20473;-74
2022/03/08 01:36:11;;;;;;;13.18;8.70;;;;;;;-0.05;64.10;102291.88;5021849;28;20041;-75
2022/03/08 01:38:36;;;;;;;12.48;8.18;;;;;;;-0.08;63.94;102286.72;5022472;28;20029;-75
2022/03/08 01:41:02;;;;;;;14.57;9.73;;;;;;;-0.06;63.87;102276.63;5021477;28;20321;-74
2022/03/08 01:43:27;;;;;;;17.30;11.00;;;;;;;-0.05;63.60;102270.28;5021657;28;21167;-74
2022/03/08 01:45:53;;;;;;;18.33;10.52;;;;;;;-0.10;63.75;102271.59;5021704;28;20037;-74
2022/03/08 01:48:18;;;;;;;16.05;10.75;;;;;;;-0.12;63.66;102263.66;5019660;28;20057;-74
2022/03/08 01:50:44;;;;;;;16.80;10.55;;;;;;;-0.15;63.58;102265.72;5021749;28;20380;-75
2022/03/08 01:53:09;;;;;;;14.48;9.70;;;;;;;-0.19;63.80;102265.16;5021096;28;20034;-68
2022/03/08 01:55:34;;;;;;;15.10;9.80;;;;;;;-0.21;63.83;102255.44;5022510;28;20103;-74
2022/03/08 01:58:00;;;;;;;15.95;10.27;;;;;;;-0.26;64.16;102251.28;5022327;28;20026;-74
2022/03/08 02:00:29;;;;;;;14.77;9.82;;;;;;;-0.28;64.38;102247.00;5021603;28;20254;-74
2022/03/08 02:02:55;;;;;;;14.15;9.55;;;;;;;-0.29;64.30;102258.78;5021357;28;20033;-73
2022/03/08 02:05:20;;;;;;;12.98;9.32;;;;;;;-0.31;64.03;102256.19;5021750;28;20611;-74
2022/03/08 02:07:46;;;;;;;14.13;9.48;;;;;;;-0.33;64.13;102250.06;5020524;28;20124;-74
2022/03/08 02:10:12;;;;;;;14.38;9.27;;;;;;;-0.35;64.20;102243.09;5022692;28;20030;-74
2022/03/08 02:12:37;;;;;;;13.10;8.85;;;;;;;-0.38;64.14;102243.34;5026055;28;20442;-74
2022/03/08 02:15:16;;;;;;;13.07;8.57;;;;;;;-0.39;64.38;102247.03;5026121;28;20028;-74
2022/03/08 02:17:41;;;;;;;12.80;9.00;;;;;;;-0.44;64.23;102244.69;5024887;28;20424;-74
2022/03/08 02:20:09;;;;;;;14.45;8.85;;;;;;;-0.48;64.55;102243.22;5026062;28;20072;-74
2022/03/08 02:22:34;;;;;;;11.98;9.00;;;;;;;-0.52;64.55;102236.34;5025401;28;20064;-74
2022/03/08 02:25:00;;;;;;;12.20;8.57;;;;;;;-0.55;64.43;102240.16;5025689;28;20053;-74
2022/03/08 02:27:25;;;;;;;12.45;8.95;;;;;;;-0.58;64.66;102232.31;5025419;28;20527;-74
2022/03/08 02:29:50;;;;;;;12.80;9.18;;;;;;;-0.59;64.19;102235.16;5025826;28;20044;-74
2022/03/08 02:32:16;;;;;;;13.50;8.55;;;;;;;-0.60;64.21;102228.03;5024252;28;20473;-74
2022/03/08 02:34:41;;;;;;;13.90;9.35;;;;;;;-0.64;65.00;102218.47;5025861;28;20026;-73
2022/03/08 02:37:12;;;;;;;14.10;9.30;;;;;;;-0.68;64.90;102231.34;5022840;28;20392;-75
2022/03/08 02:39:38;;;;;;;13.95;9.65;;;;;;;-0.70;64.82;102229.75;5025317;28;20061;-75
2022/03/08 02:42:05;;;;;;;12.95;9.63;;;;;;;-0.71;64.64;102214.53;5025485;28;20060;-74
2022/03/08 02:44:30;;;;;;;13.25;9.30;;;;;;;-0.75;65.15;102213.94;5025431;28;20469;-75
2022/03/08 02:46:56;;;;;;;13.23;9.48;;;;;;;-0.75;65.01;102213.09;5024538;28;20116;-75
2022/03/08 02:49:22;;;;;;;13.70;8.73;;;;;;;-0.78;65.04;102216.88;5025755;28;20518;-75
2022/03/08 02:51:47;;;;;;;14.13;9.82;;;;;;;-0.81;65.54;102217.13;5024453;28;20480;-72
2022/03/08 02:54:13;;;;;;;15.02;9.85;;;;;;;-0.82;65.44;102213.56;5025297;28;20511;-75
2022/03/08 02:56:38;;;;;;;13.15;9.13;;;;;;;-0.84;65.65;102206.59;5025408;28;20369;-72
2022/03/08 02:59:04;;;;;;;11.70;8.93;;;;;;;-0.84;65.74;102209.28;5025393;28;20042;-74
2022/03/08 03:01:29;;;;;;;13.52;8.82;;;;;;;-0.86;65.71;102204.03;5023854;28;20033;-74
2022/03/08 03:03:54;;;;;;;13.95;9.43;;;;;;;-0.89;65.80;102189.91;5024380;28;20037;-75
2022/03/08 03:06:20;;;;;;;13.30;9.35;;;;;;;-0.88;66.01;102200.56;5032602;22;20029;-74
2022/03/08 03:08:45;;;;;;;14.35;9.52;;;;;;;-0.85;65.94;102186.84;5024501;28;20029;-75
2022/03/08 03:11:10;;;;;;;14.27;9.70;;;;;;;-0.86;65.80;102179.75;5025430;28;20033;-74
2022/03/08 03:13:35;;;;;;;14.18;9.73;;;;;;;-0.79;65.54;102180.09;5025341;28;20029;-75
2022/03/08 03:16:01;;;;;;;13.55;9.15;;;;;;;-0.79;65.29;102172.00;5024945;28;20099;-75
2022/03/08 03:18:26;;;;;;;16.92;9.10;;;;;;;-0.74;65.07;102172.50;5025474;28;20034;-74
2022/03/08 03:20:51;;;;;;;12.63;9.07;;;;;;;-0.73;65.23;102160.72;5024631;28;20060;-75
2022/03/08 03:23:16;;;;;;;12.45;9.07;;;;;;;-0.70;64.92;102168.56;5023532;28;20036;-75
2022/03/08 03:25:42;;;;;;;15.38;9.95;;;;;;;-0.67;64.72;102160.19;5025577;28;20108;-74
2022/03/08 03:28:07;;;;;;;12.18;9.18;;;;;;;-0.70;64.99;102160.47;5025360;28;20029;-75
2022/03/08 03:30:32;;;;;;;14.57;9.57;;;;;;;-0.71;64.86;102160.56;5024722;28;20045;-74
2022/03/08 03:32:58;;;;;;;12.93;9.43;;;;;;;-0.72;65.10;102159.72;5024473;28;20044;-75
2022/03/08 03:35:23;;;;;;;14.30;9.60;;;;;;;-0.78;65.64;102160.22;5025433;28;20009;-74
2022/03/08 03:37:48;;;;;;;14.65;10.30;;;;;;;-0.85;66.05;102165.28;5023906;28;20037;-75
2022/03/08 03:40:14;;;;;;;14.23;9.85;;;;;;;-0.88;66.02;102159.25;5024667;28;20021;-75
2022/03/08 03:42:40;;;;;;;14.60;10.20;;;;;;;-0.90;66.07;102162.09;5024776;28;20143;-74
2022/03/08 03:45:06;;;;;;;13.77;9.65;;;;;;;-0.90;65.77;102166.63;5025047;28;20029;-75
2022/03/08 03:47:32;;;;;;;13.38;9.73;;;;;;;-0.90;65.45;102166.63;5024056;28;20116;-75
2022/03/08 03:49:57;;;;;;;14.38;9.95;;;;;;;-0.91;65.64;102171.16;5025305;28;20056;-75
2022/03/08 03:52:23;;;;;;;15.20;10.52;;;;;;;-0.93;65.98;102166.88;5022891;28;20025;-75
2022/03/08 03:54:48;;;;;;;13.88;9.73;;;;;;;-0.97;66.19;102173.47;5024816;28;20025;-75
2022/03/08 03:57:13;;;;;;;14.05;9.45;;;;;;;-0.99;66.06;102167.38;5024472;28;20052;-75
2022/03/08 03:59:39;;;;;;;12.85;9.23;;;;;;;-0.98;66.37;102174.47;5024446;28;20455;-75
2022/03/08 04:02:05;;;;;;;13.45;9.77;;;;;;;-1.00;66.53;102177.28;5024049;28;20076;-75
2022/03/08 04:04:30;;;;;;;16.77;10.32;;;;;;;-0.96;66.29;102175.19;5023969;28;20432;-75
2022/03/08 04:06:55;;;;;;;15.10;10.43;;;;;;;-0.96;66.42;102172.50;5023935;28;20041;-75
2022/03/08 04:09:20;;;;;;;15.95;10.77;;;;;;;-0.96;65.97;102164.41;5024224;28;20194;-75
2022/03/08 04:11:46;;;;;;;15.60;10.38;;;;;;;-0.96;66.20;102164.41;5013358;28;20080;-74
2022/03/08 04:14:11;;;;;;;17.02;11.55;;;;;;;-0.99;66.52;102167.38;5012200;28;20025;-74
2022/03/08 04:16:36;;;;;;;16.25;11.13;;;;;;;-1.01;66.60;102159.41;5022656;28;20029;-75
2022/03/08 04:19:02;;;;;;;17.55;11.38;;;;;;;-0.98;66.63;102155.59;5024130;28;20040;-75
2022/03/08 04:21:27;;;;;;;16.75;10.82;;;;;;;-0.96;66.29;102159.00;5022848;28;20025;-75
2022/03/08 04:23:52;;;;;;;18.83;11.25;;;;;;;-0.94;66.26;102151.66;5004032;28;20053;-75
2022/03/08 04:26:17;;;;;;;16.63;11.57;;;;;;;-0.96;67.02;102151.81;5014792;28;20515;-75
2022/03/08 04:28:43;;;;;;;19.95;12.27;;;;;;;-1.01;66.42;102153.13;5023757;28;20038;-75
2022/03/08 04:31:08;;;;;;;17.58;12.40;;;;;;;-0.99;66.72;102151.19;5023440;28;20203;-66
2022/03/08 04:33:33;;;;;;;19.02;11.98;;;;;;;-0.96;66.61;102150.91;5022610;28;20029;-75
2022/03/08 04:35:59;;;;;;;16.20;10.90;;;;;;;-0.92;66.43;102155.94;5023468;28;20128;-74
2022/03/08 04:38:24;;;;;;;14.18;10.98;;;;;;;-0.90;66.50;102151.31;5020572;28;20044;-75
2022/03/08 04:40:49;;;;;;;13.25;10.05;;;;;;;-0.88;66.47;102156.56;5022911;28;20025;-75
2022/03/08 04:43:14;;;;;;;14.35;9.88;;;;;;;-0.89;66.38;102146.75;5023199;28;20017;-75
2022/03/08 04:45:40;;;;;;;14.35;10.02;;;;;;;-0.90;66.38;102148.59;5022295;28;20049;-75
2022/03/08 04:48:05;;;;;;;14.85;10.55;;;;;;;-0.88;66.08;102154.72;5023791;28;20026;-74
2022/03/08 04:50:30;;;;;;;16.20;10.93;;;;;;;-0.87;66.23;102145.63;5022952;28;20367;-75
2022/03/08 04:52:55;;;;;;;18.25;12.00;;;;;;;-0.87;66.45;102152.88;5022097;28;20060;-74
2022/03/08 04:55:21;;;;;;;19.83;12.15;;;;;;;-0.85;66.35;102145.53;5022999;28;20117;-74
2022/03/08 04:57:47;;;;;;;18.08;11.30;;;;;;;-0.86;66.38;102146.53;5023156;28;20098;-75
2022/03/08 05:00:14;;;;;;;17.60;11.45;;;;;;;-0.84;66.04;102144.56;5022655;28;20416;-74
2022/03/08 05:02:40;;;;;;;17.85;11.70;;;;;;;-0.85;66.37;102138.31;5022258;28;20074;-75
2022/03/08 05:05:08;;;;;;;17.20;12.05;;;;;;;-0.86;66.33;102143.84;5023509;28;20673;-75
2022/03/08 05:07:34;;;;;;;18.88;12.20;;;;;;;-0.90;66.59;102145.91;5021978;28;20463;-74
2022/03/08 05:09:59;;;;;;;17.92;11.63;;;;;;;-0.94;66.75;102140.88;5022608;28;20037;-75
2022/03/08 05:12:24;;;;;;;17.45;11.00;;;;;;;-0.93;66.70;102150.69;5022611;28;20028;-74
2022/03/08 05:14:50;;;;;;;19.63;11.73;;;;;;;-0.94;66.77;102138.19;5022515;28;20025;-74
2022/03/08 05:17:15;;;;;;;19.60;12.70;;;;;;;-0.94;66.70;102138.19;5022088;28;20025;-74
2022/03/08 05:19:40;;;;;;;17.80;11.57;;;;;;;-0.91;66.67;102137.91;5021300;28;20088;-75
2022/03/08 05:22:06;;;;;;;19.27;11.80;;;;;;;-0.92;66.67;102137.06;5022305;28;20022;-74
2022/03/08 05:24:31;;;;;;;17.90;11.38;;;;;;;-0.90;66.68;102142.34;5022754;28;20033;-75
2022/03/08 05:26:56;;;;;;;16.95;11.40;;;;;;;-0.88;66.53;102135.84;5022196;28;20028;-75
2022/03/08 05:29:22;;;;;;;17.30;11.93;;;;;;;-0.87;66.80;102136.69;5022290;28;20036;-74
2022/03/08 05:31:47;;;;;;;17.33;12.07;;;;;;;-0.89;66.64;102135.97;5022629;28;20092;-75
2022/03/08 05:34:14;;;;;;;20.63;12.38;;;;;;;-0.93;66.69;102127.25;5022819;28;20136;-75
2022/03/08 05:36:39;;;;;;;17.00;12.07;;;;;;;-0.91;66.75;102137.91;5021414;28;20127;-75
2022/03/08 05:39:05;;;;;;;16.15;11.27;;;;;;;-0.91;66.71;102135.22;5023339;28;20386;-74
2022/03/08 05:41:30;;;;;;;15.50;11.05;;;;;;;-0.91;66.69;102133.41;5022061;28;20476;-74
2022/03/08 05:43:55;;;;;;;14.75;9.98;;;;;;;-0.90;66.83;102123.47;5022027;28;20104;-75
2022/03/08 05:46:20;;;;;;;15.27;9.88;;;;;;;-0.90;66.90;102134.25;5021512;28;20029;-74
2022/03/08 05:48:46;;;;;;;16.15;10.73;;;;;;;-0.92;66.97;102126.28;5022573;28;20038;-75
2022/03/08 05:51:11;;;;;;;15.80;10.20;;;;;;;-0.90;66.85;102126.19;5023062;28;20044;-74
2022/03/08 05:53:36;;;;;;;16.85;10.95;;;;;;;-0.88;67.14;102121.50;5022182;28;20110;-75
2022/03/08 05:56:02;;;;;;;15.20;11.05;;;;;;;-0.92;67.17;102125.44;5019343;28;20021;-74
2022/03/08 05:58:27;;;;;;;15.63;10.65;;;;;;;-0.96;66.95;102122.16;5021691;28;20036;-74
2022/03/08 06:00:52;;;;;;;13.95;10.40;;;;;;;-0.99;67.40;102124.22;5020663;28;20351;-75
2022/03/08 06:03:17;;;;;;;16.25;11.40;;;;;;;-1.01;67.69;102128.84;5021301;28;20105;-75
2022/03/08 06:05:43;;;;;;;15.23;10.80;;;;;;;-1.02;67.79;102125.31;5022715;28;20021;-75
2022/03/08 06:08:08;;;;;;;16.55;10.90;;;;;;;-0.96;67.24;102126.66;5020600;28;20107;-68
2022/03/08 06:10:34;;;;;;;15.15;10.60;;;;;;;-0.98;67.32;102123.22;5021850;28;20065;-75
2022/03/08 06:13:00;;;;;;;16.45;10.98;;;;;;;-0.99;67.54;102129.63;5021639;28;20031;-75
2022/03/08 06:15:25;;;;;;;15.13;11.07;;;;;;;-0.96;67.33;102124.84;5021117;28;20049;-75
2022/03/08 06:17:51;;;;;;;15.35;10.68;;;;;;;-0.96;67.82;102132.94;5020869;28;20064;-75
2022/03/08 06:20:16;;;;;;;17.85;10.68;;;;;;;-0.95;67.77;102136.47;5021439;28;20017;-75
2022/03/08 06:22:42;;;;;;;15.70;11.35;;;;;;;-0.91;67.22;102137.91;5017751;28;20400;-75
2022/03/08 06:25:07;;;;;;;18.10;10.77;;;;;;;-0.89;67.13;102134.13;5022360;28;20018;-75
2022/03/08 06:27:33;;;;;;;19.05;10.82;;;;;;;-0.82;67.01;102132.63;5020392;28;20029;-75
2022/03/08 06:29:58;;;;;;;16.02;11.10;;;;;;;-0.81;67.16;102128.13;5021363;28;20029;-75
2022/03/08 06:32:24;;;;;;;16.70;11.20;;;;;;;-0.80;67.45;102125.31;5020643;28;20032;-75
2022/03/08 06:34:51;;;;;;;19.63;12.20;;;;;;;-0.73;66.85;102128.34;5020847;28;20320;-75
2022/03/08 06:37:17;;;;;;;18.27;11.60;;;;;;;-0.72;66.79;102130.03;5019697;28;20448;-75
2022/03/08 06:39:43;;;;;;;17.17;11.43;;;;;;;-0.69;66.32;102129.81;5021561;28;20492;-75
2022/03/08 06:42:08;;;;;;;17.70;11.32;;;;;;;-0.63;66.53;102132.00;5020661;28;20029;-68
2022/03/08 06:44:33;;;;;;;16.25;11.20;;;;;;;-0.56;66.21;102127.81;5021490;28;20389;-74
2022/03/08 06:46:59;;;;;;;16.42;10.77;;;;;;;-0.48;65.91;102124.47;5020624;28;20033;-75
2022/03/08 06:49:24;;;;;;;16.75;10.95;;;;;;;-0.41;66.02;102125.66;5020965;28;20479;-75
2022/03/08 06:51:49;;;;;;;17.75;11.20;;;;;;;-0.25;65.43;102125.28;5020364;28;20027;-74
2022/03/08 06:54:15;;;;;;;14.90;10.63;;;;;;;-0.08;64.64;102121.13;5021034;28;20029;-75
2022/03/08 06:56:40;;;;;;;16.92;12.02;;;;;;;0.09;64.57;102125.09;5021938;28;20032;-75
2022/03/08 06:59:05;;;;;;;17.02;11.25;;;;;;;0.29;63.52;102126.09;5025252;28;20103;-75
2022/03/08 07:01:30;;;;;;;15.27;11.15;;;;;;;0.38;63.42;102122.59;5024159;28;20619;-75
2022/03/08 07:03:56;;;;;;;16.67;11.40;;;;;;;0.41;63.55;102125.03;5024766;28;20037;-75
2022/03/08 07:06:21;;;;;;;16.08;11.32;;;;;;;0.41;63.42;102128.59;5023498;28;20029;-75
2022/03/08 07:08:46;;;;;;;17.13;11.60;;;;;;;0.40;63.57;102124.16;5023965;28;20122;-75
2022/03/08 07:11:13;;;;;;;17.45;11.20;;;;;;;0.43;62.77;102132.00;5024385;28;20029;-75
2022/03/08 07:13:38;;;;;;;16.30;10.93;;;;;;;0.55;62.49;102129.22;5024610;28;20048;-71
2022/03/08 07:16:04;;;;;;;17.77;11.85;;;;;;;0.71;61.65;102129.59;5023670;28;20318;-76
2022/03/08 07:18:29;;;;;;;17.55;11.70;;;;;;;0.72;62.75;102126.78;5023977;28;20038;-75
2022/03/08 07:20:55;;;;;;;14.90;10.82;;;;;;;0.97;61.73;102140.84;5024467;28;20057;-75
2022/03/08 07:23:20;;;;;;;15.40;10.80;;;;;;;1.20;59.69;102130.63;5021969;28;20356;-75
2022/03/08 07:25:46;;;;;;;16.30;10.63;;;;;;;1.24;59.98;102132.94;5023936;28;20072;-75
2022/03/08 07:28:11;;;;;;;14.88;9.70;;;;;;;1.26;59.58;102140.91;5023926;28;20048;-75
2022/03/08 07:30:38;;;;;;;15.73;11.10;;;;;;;1.44;59.30;102136.53;5024024;28;20025;-74
2022/03/08 07:33:03;;;;;;;12.77;9.52;;;;;;;1.74;58.45;102129.31;5024318;28;20112;-75
2022/03/08 07:35:29;;;;;;;16.27;10.70;;;;;;;1.96;58.49;102129.03;5023695;28;20148;-74
2022/03/08 07:37:54;;;;;;;14.13;9.98;;;;;;;2.24;56.78;102126.47;5023056;28;20026;-74
2022/03/08 07:40:19;;;;;;;16.60;10.82;;;;;;;2.38;56.02;102125.97;5023841;28;20026;-75
2022/03/08 07:42:45;;;;;;;15.57;10.45;;;;;;;2.68;55.46;102121.34;5020110;28;20095;-74
2022/03/08 07:45:10;;;;;;;14.13;10.18;;;;;;;2.94;54.05;102119.69;5021707;28;20484;-75
2022/03/08 07:47:36;;;;;;;15.70;9.88;;;;;;;3.01;53.97;102120.78;5019728;28;20030;-75
2022/03/08 07:50:01;;;;;;;15.63;9.95;;;;;;;2.83;55.25;102115.28;5005172;28;20022;-75
2022/03/08 07:52:27;;;;;;;16.20;10.85;;;;;;;2.71;55.00;102113.78;5022676;28;20159;-75
2022/03/08 07:54:52;;;;;;;16.48;10.73;;;;;;;2.72;55.83;102110.03;5023377;28;20064;-75
2022/03/08 07:57:18;;;;;;;13.98;10.43;;;;;;;2.71;55.93;102112.91;5022637;28;20406;-75
2022/03/08 07:59:43;;;;;;;16.08;9.90;;;;;;;2.78;55.04;102111.31;5023989;28;20025;-74
2022/03/08 08:02:09;;;;;;;14.38;10.40;;;;;;;2.80;54.39;102115.59;5022741;28;20017;-75
2022/03/08 08:04:34;;;;;;;15.68;11.02;;;;;;;2.98;54.11;102117.50;5023912;28;20033;-75
2022/03/08 08:06:59;;;;;;;15.60;10.68;;;;;;;3.14;53.61;102123.13;5021888;28;20045;-75
2022/03/08 08:09:24;;;;;;;16.42;10.40;;;;;;;3.33;54.04;102128.47;5021568;28;20067;-75
2022/03/08 08:11:50;;;;;;;14.40;10.23;;;;;;;3.61;53.10;102125.72;5019825;28;20157;-75
2022/03/08 08:14:16;;;;;;;13.73;10.07;;;;;;;3.95;51.44;102128.59;5019201;28;20068;-75
2022/03/08 08:16:42;;;;;;;14.80;10.50;;;;;;;4.65;50.08;102128.63;5023881;28;20032;-74
2022/03/08 08:19:07;;;;;;;12.95;10.02;;;;;;;5.20;48.09;102136.41;5024796;28;20026;-74
2022/03/08 08:21:33;;;;;;;13.98;11.02;;;;;;;5.15;46.88;102131.44;5021986;28;20467;-73
2022/03/08 08:24:00;;;;;;;13.38;10.10;;;;;;;5.11;48.59;102140.97;5022721;28;20051;-73
2022/03/08 08:26:26;;;;;;;13.98;9.85;;;;;;;5.13;47.26;102138.94;5037813;28;20034;-73
2022/03/08 08:28:51;;;;;;;13.85;10.90;;;;;;;4.94;48.22;102147.34;5022938;28;20067;-73
2022/03/08 08:31:16;;;;;;;14.20;10.43;;;;;;;5.34;48.27;102140.38;5020923;28;20029;-75
2022/03/08 08:33:41;;;;;;;16.02;10.48;;;;;;;6.16;45.50;102130.53;5015573;28;20033;-74
2022/03/08 08:36:07;;;;;;;13.27;10.05;;;;;;;6.63;44.44;102122.44;5018266;28;20028;-74
2022/03/08 08:38:33;;;;;;;17.63;10.25;;;;;;;6.60;43.68;102133.75;5012963;28;20030;-74
2022/03/08 08:40:58;;;;;;;13.77;10.05;;;;;;;6.78;43.56;102138.13;5019989;28;20262;-75
2022/03/08 08:43:23;;;;;;;14.00;10.65;;;;;;;6.92;43.36;102131.94;5015274;28;20022;-75
2022/03/08 08:45:51;;;;;;;14.63;9.90;;;;;;;7.08;43.53;102123.69;5018502;28;20032;-74
2022/03/08 08:48:17;;;;;;;14.93;9.93;;;;;;;7.36;42.95;102118.63;5013865;28;20083;-75
2022/03/08 08:50:42;;;;;;;14.20;10.57;;;;;;;7.47;42.93;102125.59;5021786;28;20025;-75
2022/03/08 08:53:07;;;;;;;14.60;10.48;;;;;;;7.56;41.51;102129.97;5022668;28;20021;-75
2022/03/08 08:55:34;;;;;;;14.80;10.18;;;;;;;7.66;40.84;102114.19;5021883;28;20029;-75
2022/03/08 08:58:00;;;;;;;14.90;10.32;;;;;;;7.62;41.40;102118.31;5022569;28;20025;-75
2022/03/08 09:00:25;;;;;;;15.13;10.25;;;;;;;8.02;40.54;102113.59;5022682;28;20036;-75
2022/03/08 09:02:52;;;;;;;16.20;10.18;;;;;;;8.92;38.50;102115.50;5013330;28;20030;-74
2022/03/08 09:05:17;;;;;;;12.82;9.82;;;;;;;9.50;36.67;102113.75;5009222;28;20033;-72
2022/03/08 09:07:42;;;;;;;13.43;10.48;;;;;;;9.58;36.50;102117.25;5021766;28;20120;-74
2022/03/08 09:10:08;;;;;;;15.02;10.27;;;;;;;10.11;35.32;102108.69;5022786;28;20025;-73
2022/03/08 09:12:33;;;;;;;12.73;10.13;;;;;;;10.52;35.84;102113.53;5022467;28;20033;-73
2022/03/08 09:15:00;;;;;;;13.88;10.18;;;;;;;10.45;35.36;102104.38;5021835;28;20072;-73
2022/03/08 09:17:25;;;;;;;12.98;9.35;;;;;;;11.14;34.19;102091.50;5018496;28;20028;-74
2022/03/08 09:19:51;;;;;;;13.50;9.95;;;;;;;11.34;32.99;102101.75;5019133;28;20037;-74
2022/03/08 09:22:16;;;;;;;12.45;9.50;;;;;;;11.57;32.73;102093.16;5020371;28;20076;-73
2022/03/08 09:24:41;;;;;;;15.52;9.35;;;;;;;12.30;31.73;102096.91;5011007;28;20125;-72
2022/03/08 09:27:07;;;;;;;12.27;9.18;;;;;;;11.99;30.80;102092.00;5022382;28;20036;-73
2022/03/08 09:29:32;;;;;;;14.68;10.00;;;;;;;12.70;32.58;102089.47;5016307;28;20034;-73
2022/03/08 09:31:58;;;;;;;14.70;10.70;;;;;;;13.66;30.01;102087.88;5021811;28;20522;-73
2022/03/08 09:34:23;;;;;;;14.35;9.50;;;;;;;13.70;28.58;102081.69;5018366;28;20044;-73
2022/03/08 09:36:49;;;;;;;14.43;10.00;;;;;;;13.55;28.77;102077.56;5022022;28;20064;-74
2022/03/08 09:39:14;;;;;;;16.50;10.55;;;;;;;13.62;28.41;102075.59;5025149;28;20025;-74
2022/03/08 09:41:41;;;;;;;15.15;10.38;;;;;;;13.45;29.30;102069.75;5022981;28;20056;-74
2022/03/08 09:44:12;;;;;;;19.35;10.48;;;;;;;13.51;29.14;102077.13;5023217;28;20079;-73
2022/03/08 09:46:37;;;;;;;22.10;12.10;;;;;;;13.81;27.96;102077.38;5020386;28;20033;-73
2022/03/08 09:49:03;;;;;;;18.08;12.68;;;;;;;13.74;27.41;102060.88;5017365;28;20025;-73
2022/03/08 09:51:28;;;;;;;20.75;14.68;;;;;;;13.86;28.32;102052.72;5028495;28;20040;-73
2022/03/08 09:53:54;;;;;;;25.40;17.50;;;;;;;13.89;28.03;102057.81;5021359;28;20017;-73
2022/03/08 09:56:20;;;;;;;20.15;13.98;;;;;;;14.14;26.94;102048.66;5021895;28;20036;-73
2022/03/08 09:58:45;;;;;;;17.00;11.23;;;;;;;14.65;27.40;102051.22;5021429;28;20124;-73
2022/03/08 10:01:10;;;;;;;19.10;12.38;;;;;;;15.08;27.30;102046.69;5020706;28;20029;-73
2022/03/08 10:03:39;;;;;;;20.35;12.38;;;;;;;15.51;26.88;102046.53;5022484;28;20114;-72
2022/03/08 10:06:06;;;;;;;20.27;11.80;;;;;;;15.60;25.56;102050.66;5021203;28;20030;-73
2022/03/08 10:08:32;;;;;;;18.92;12.93;;;;;;;15.05;25.74;102045.22;5021697;28;20258;-71
2022/03/08 10:11:03;;;;;;;19.20;11.85;;;;;;;14.98;25.08;102034.25;5021694;28;20108;-72
2022/03/08 10:13:38;;;;;;;17.30;9.88;;;;;;;14.22;25.98;102042.88;5021567;28;20033;-70
2022/03/08 10:16:14;;;;;;;18.65;11.82;;;;;;;14.13;26.82;102046.97;5021184;28;20561;-70
2022/03/08 10:18:47;;;;;;;18.25;11.40;;;;;;;14.50;26.36;102037.75;5022023;28;20267;-71
2022/03/08 10:21:38;;;;;;;18.02;12.70;;;;;;;15.72;26.35;102039.69;5020590;28;20403;-72
2022/03/08 10:24:05;;;;;;;19.00;12.95;;;;;;;16.41;25.35;102035.34;5022200;28;20029;-72
2022/03/08 10:26:41;;;;;;;19.92;11.93;;;;;;;15.92;23.63;102020.00;5021598;28;20018;-72
2022/03/08 10:29:06;;;;;;;21.33;13.25;;;;;;;15.27;25.12;102026.22;5021859;28;20471;-72
2022/03/08 10:31:32;;;;;;;17.13;10.88;;;;;;;15.24;23.61;102033.06;5023553;28;20185;-72
2022/03/08 10:34:04;;;;;;;14.40;10.80;;;;;;;14.88;25.63;102022.03;5022018;28;20025;-72
2022/03/08 10:36:29;;;;;;;16.67;11.18;;;;;;;14.53;24.81;102012.41;5004425;28;20030;-72
2022/03/08 10:39:13;;;;;;;16.65;11.55;;;;;;;14.54;25.58;102018.78;5005856;28;20030;-71
2022/03/08 10:41:46;;;;;;;18.67;11.63;;;;;;;14.68;24.41;102027.78;5005275;28;20036;-72
2022/03/08 10:44:12;;;;;;;18.60;11.82;;;;;;;14.69;25.77;102022.00;5005537;28;20096;-72
2022/03/08 10:46:37;;;;;;;16.27;11.32;;;;;;;14.59;23.78;102020.84;5005500;28;20113;-71
2022/03/08 10:49:13;;;;;;;15.02;11.15;;;;;;;14.31;24.28;102021.34;5005616;28;20018;-71
2022/03/08 10:51:38;;;;;;;17.10;10.80;;;;;;;14.00;24.46;102010.13;5020158;28;20032;-67
2022/03/08 10:54:11;;;;;;;16.60;11.30;;;;;;;14.18;25.22;102014.00;5010684;28;20014;-69
2022/03/08 10:56:43;;;;;;;16.92;11.43;;;;;;;13.90;24.97;102009.78;5025109;28;20448;-71
2022/03/08 10:59:10;;;;;;;17.17;11.48;;;;;;;13.98;25.62;102012.25;5023842;28;20515;-71
2022/03/08 11:01:35;;;;;;;17.38;11.20;;;;;;;14.25;24.73;102009.28;5024794;28;20033;-70
2022/03/08 11:04:01;;;;;;;19.23;12.20;;;;;;;14.25;24.86;101995.44;5025761;28;20070;-71
2022/03/08 11:06:26;;;;;;;20.48;12.93;;;;;;;14.41;24.37;102002.31;5023476;28;20073;-71
2022/03/08 11:08:52;;;;;;;19.02;11.80;;;;;;;14.32;25.03;102004.50;5019083;28;20120;-71